createdAt,value
2019-06-04T00:01:14.416Z,16.72
2019-06-04T00:01:59.856Z,16.70
2019-06-04T00:02:58.164Z,16.67
2019-06-04T00:03:59.630Z,16.72
2019-06-04T00:04:58.261Z,16.65
2019-06-04T00:05:58.203Z,16.58
2019-06-04T00:06:58.279Z,16.74
2019-06-04T00:07:57.990Z,16.70
2019-06-04T00:08:58.508Z,16.61
2019-06-04T00:09:57.894Z,16.55
2019-06-04T00:10:58.531Z,16.54
2019-06-04T00:11:57.910Z,16.55
2019-06-04T00:12:57.913Z,16.39
2019-06-04T00:13:59.010Z,16.36
2019-06-04T00:14:57.968Z,16.36
2019-06-04T00:15:59.014Z,16.39
2019-06-04T00:16:58.411Z,16.57
2019-06-04T00:17:57.830Z,16.44
2019-06-04T00:18:59.131Z,16.52
2019-06-04T00:19:59.042Z,16.51
2019-06-04T00:20:59.035Z,16.52
2019-06-04T00:21:57.782Z,16.52
2019-06-04T00:22:58.432Z,16.55
2019-06-04T00:23:58.533Z,16.49
2019-06-04T00:24:58.583Z,16.49
2019-06-04T00:25:58.883Z,16.47
2019-06-04T00:26:58.781Z,16.49
2019-06-04T00:27:58.947Z,16.51
2019-06-04T00:28:57.973Z,16.40
2019-06-04T00:29:58.056Z,16.49
2019-06-04T00:30:58.828Z,16.47
2019-06-04T00:31:57.927Z,16.43
2019-06-04T00:32:57.930Z,16.46
2019-06-04T00:33:58.188Z,16.46
2019-06-04T00:34:58.029Z,16.43
2019-06-04T00:35:58.260Z,16.36
2019-06-04T00:36:58.070Z,16.39
2019-06-04T00:37:58.542Z,16.43
2019-06-04T00:38:58.392Z,16.42
2019-06-04T00:39:58.572Z,16.40
2019-06-04T00:40:58.774Z,16.42
2019-06-04T00:41:58.691Z,16.44
2019-06-04T00:42:58.569Z,16.46
2019-06-04T00:43:58.663Z,16.36
2019-06-04T00:44:58.913Z,16.40
2019-06-04T00:45:58.517Z,16.42
2019-06-04T00:46:58.810Z,16.29
2019-06-04T00:47:58.921Z,16.33
2019-06-04T00:48:58.830Z,16.32
2019-06-04T00:49:58.624Z,16.25
2019-06-04T00:50:57.444Z,16.37
2019-06-04T00:51:57.419Z,16.39
2019-06-04T00:52:57.415Z,16.33
2019-06-04T00:53:57.398Z,16.21
2019-06-04T00:54:57.513Z,16.28
2019-06-04T00:55:58.144Z,16.25
2019-06-04T00:56:57.374Z,16.28
2019-06-04T00:57:58.334Z,16.25
2019-06-04T00:58:57.365Z,16.25
2019-06-04T00:59:58.414Z,16.16
2019-06-04T01:00:57.723Z,16.22
2019-06-04T01:01:58.793Z,16.22
2019-06-04T01:02:57.708Z,16.25
2019-06-04T01:03:57.285Z,16.22
2019-06-04T01:04:57.942Z,16.22
2019-06-04T01:05:57.271Z,16.21
2019-06-04T01:06:57.332Z,16.28
2019-06-04T01:07:57.355Z,16.28
2019-06-04T01:08:57.319Z,16.22
2019-06-04T01:09:57.499Z,16.26
2019-06-04T01:10:58.593Z,16.26
2019-06-04T01:11:57.596Z,16.25
2019-06-04T01:12:59.214Z,16.25
2019-06-04T01:13:57.942Z,16.29
2019-06-04T01:14:58.004Z,16.17
2019-06-04T01:15:58.023Z,16.10
2019-06-04T01:16:58.326Z,16.16
2019-06-04T01:17:58.407Z,16.13
2019-06-04T01:18:58.489Z,16.13
2019-06-04T01:19:58.482Z,16.16
2019-06-04T01:20:57.100Z,16.00
2019-06-04T01:21:57.077Z,15.98
2019-06-04T01:22:57.066Z,15.95
2019-06-04T01:23:57.064Z,15.98
2019-06-04T01:24:57.101Z,15.99
2019-06-04T01:25:57.041Z,15.91
2019-06-04T01:26:57.023Z,15.99
2019-06-04T01:27:57.012Z,15.91
2019-06-04T01:28:57.004Z,15.90
2019-06-04T01:29:57.047Z,15.95
2019-06-04T01:30:57.011Z,15.91
2019-06-04T01:32:11.053Z,15.80
2019-06-04T01:32:58.859Z,15.84
2019-06-04T01:33:56.973Z,15.80
2019-06-04T01:34:56.979Z,15.72
2019-06-04T01:35:56.930Z,15.72
2019-06-04T01:36:56.966Z,15.81
2019-06-04T01:37:56.901Z,15.69
2019-06-04T01:38:56.898Z,15.72
2019-06-04T01:39:57.537Z,15.73
2019-06-04T01:40:56.886Z,15.73
2019-06-04T01:41:56.903Z,15.62
2019-06-04T01:42:56.880Z,15.66
2019-06-04T01:43:56.858Z,15.63
2019-06-04T01:44:56.822Z,15.68
2019-06-04T01:45:56.801Z,15.66
2019-06-04T01:46:56.792Z,15.66
2019-06-04T01:47:56.775Z,15.50
2019-06-04T01:48:56.828Z,15.60
2019-06-04T01:49:56.782Z,15.66
2019-06-04T01:50:56.761Z,15.54
2019-06-04T01:51:56.735Z,15.58
2019-06-04T01:52:56.740Z,15.50
2019-06-04T01:53:56.725Z,15.52
2019-06-04T01:54:56.749Z,15.51
2019-06-04T01:55:56.707Z,15.45
2019-06-04T01:56:56.692Z,15.45
2019-06-04T01:57:56.670Z,15.45
2019-06-04T01:58:56.680Z,15.45
2019-06-04T01:59:56.677Z,15.44
2019-06-04T02:00:56.708Z,15.36
2019-06-04T02:01:56.689Z,15.40
2019-06-04T02:02:56.631Z,15.45
2019-06-04T02:03:56.613Z,15.35
2019-06-04T02:04:56.618Z,15.33
2019-06-04T02:05:56.599Z,15.27
2019-06-04T02:06:56.626Z,15.41
2019-06-04T02:07:56.566Z,15.23
2019-06-04T02:08:56.568Z,15.29
2019-06-04T02:09:56.544Z,15.29
2019-06-04T02:10:56.541Z,15.19
2019-06-04T02:11:56.526Z,15.15
2019-06-04T02:12:56.569Z,15.17
2019-06-04T02:13:56.491Z,15.26
2019-06-04T02:14:56.488Z,15.20
2019-06-04T02:15:56.487Z,15.15
2019-06-04T02:16:56.467Z,15.11
2019-06-04T02:17:56.453Z,15.12
2019-06-04T02:18:56.488Z,15.15
2019-06-04T02:19:56.465Z,15.11
2019-06-04T02:20:56.438Z,15.14
2019-06-04T02:21:56.411Z,15.17
2019-06-04T02:22:56.408Z,15.08
2019-06-04T02:23:56.473Z,15.14
2019-06-04T02:24:56.403Z,15.01
2019-06-04T02:25:56.365Z,15.05
2019-06-04T02:26:56.346Z,14.93
2019-06-04T02:27:56.351Z,14.92
2019-06-04T02:28:56.323Z,14.97
2019-06-04T02:29:56.307Z,14.78
2019-06-04T02:30:56.356Z,14.85
2019-06-04T02:31:56.282Z,14.83
2019-06-04T02:33:07.802Z,14.83
2019-06-04T02:33:57.282Z,14.79
2019-06-04T02:34:56.275Z,14.77
2019-06-04T02:35:56.254Z,14.69
2019-06-04T02:36:56.301Z,14.74
2019-06-04T02:37:56.223Z,14.67
2019-06-04T02:38:56.211Z,14.67
2019-06-04T02:39:56.217Z,14.69
2019-06-04T02:40:56.213Z,14.69
2019-06-04T02:41:56.195Z,14.69
2019-06-04T02:42:56.216Z,14.67
2019-06-04T02:43:56.159Z,14.66
2019-06-04T02:44:56.154Z,14.63
2019-06-04T02:45:56.133Z,14.70
2019-06-04T02:46:56.137Z,14.67
2019-06-04T02:47:56.149Z,14.73
2019-06-04T02:48:56.138Z,14.70
2019-06-04T02:49:56.099Z,14.70
2019-06-04T02:50:56.095Z,14.67
2019-06-04T02:51:56.075Z,14.58
2019-06-04T02:52:56.065Z,14.56
2019-06-04T02:53:56.043Z,14.61
2019-06-04T02:54:56.108Z,14.51
2019-06-04T02:55:56.045Z,14.53
2019-06-04T02:56:56.010Z,14.49
2019-06-04T02:57:56.016Z,14.52
2019-06-04T02:58:55.988Z,14.58
2019-06-04T02:59:55.974Z,14.64
2019-06-04T03:00:56.018Z,14.53
2019-06-04T03:01:55.948Z,14.69
2019-06-04T03:02:55.950Z,14.63
2019-06-04T03:03:55.928Z,14.61
2019-06-04T03:04:55.911Z,14.64
2019-06-04T03:05:55.924Z,14.67
2019-06-04T03:06:56.074Z,14.71
2019-06-04T03:07:55.880Z,14.71
2019-06-04T03:08:55.872Z,14.73
2019-06-04T03:09:55.854Z,14.69
2019-06-04T03:10:55.860Z,14.74
2019-06-04T03:11:55.837Z,14.70
2019-06-04T03:12:55.860Z,14.71
2019-06-04T03:13:55.828Z,14.78
2019-06-04T03:14:55.801Z,14.77
2019-06-04T03:15:55.789Z,14.85
2019-06-04T03:16:55.810Z,14.86
2019-06-04T03:17:55.770Z,14.89
2019-06-04T03:18:56.551Z,14.87
2019-06-04T03:19:55.744Z,14.90
2019-06-04T03:20:55.738Z,14.85
2019-06-04T03:21:55.732Z,14.96
2019-06-04T03:22:55.724Z,14.87
2019-06-04T03:23:55.730Z,14.90
2019-06-04T03:24:55.750Z,14.86
2019-06-04T03:25:55.690Z,14.87
2019-06-04T03:26:55.678Z,14.83
2019-06-04T03:27:55.658Z,14.89
2019-06-04T03:28:55.650Z,14.99
2019-06-04T03:29:55.649Z,14.97
2019-06-04T03:30:55.685Z,15.03
2019-06-04T03:31:55.625Z,15.01
2019-06-04T03:32:55.627Z,15.01
2019-06-04T03:33:58.640Z,15.01
2019-06-04T03:34:55.579Z,15.05
2019-06-04T03:35:55.564Z,15.05
2019-06-04T03:36:55.611Z,15.04
2019-06-04T03:37:55.581Z,14.99
2019-06-04T03:38:55.544Z,15.05
2019-06-04T03:39:55.527Z,15.07
2019-06-04T03:40:55.517Z,15.10
2019-06-04T03:41:55.498Z,15.15
2019-06-04T03:42:55.531Z,15.20
2019-06-04T03:43:55.473Z,15.10
2019-06-04T03:44:55.481Z,15.17
2019-06-04T03:45:55.451Z,15.19
2019-06-04T03:46:55.446Z,15.05
2019-06-04T03:47:55.433Z,15.10
2019-06-04T03:48:55.478Z,15.12
2019-06-04T03:49:55.421Z,15.11
2019-06-04T03:50:55.412Z,15.17
2019-06-04T03:51:55.393Z,15.10
2019-06-04T03:52:55.369Z,15.19
2019-06-04T03:53:55.375Z,15.08
2019-06-04T03:54:55.395Z,15.15
2019-06-04T03:55:55.337Z,15.14
2019-06-04T03:56:55.328Z,15.10
2019-06-04T03:57:55.313Z,15.08
2019-06-04T03:58:55.463Z,15.07
2019-06-04T03:59:55.328Z,15.01
2019-06-04T04:00:55.332Z,15.01
2019-06-04T04:01:55.363Z,15.05
2019-06-04T04:02:55.364Z,15.05
2019-06-04T04:04:07.137Z,15.10
2019-06-04T04:04:56.234Z,15.05
2019-06-04T04:05:55.214Z,15.11
2019-06-04T04:06:55.252Z,14.99
2019-06-04T04:07:55.196Z,15.12
2019-06-04T04:08:55.261Z,15.10
2019-06-04T04:09:55.168Z,15.19
2019-06-04T04:10:55.164Z,15.19
2019-06-04T04:11:55.169Z,15.20
2019-06-04T04:12:55.437Z,15.14
2019-06-04T04:13:55.163Z,15.10
2019-06-04T04:14:55.116Z,15.19
2019-06-04T04:15:55.122Z,15.20
2019-06-04T04:16:55.091Z,15.30
2019-06-04T04:17:55.091Z,15.32
2019-06-04T04:18:55.117Z,15.15
2019-06-04T04:19:55.054Z,15.25
2019-06-04T04:20:55.147Z,15.27
2019-06-04T04:21:55.036Z,15.33
2019-06-04T04:22:55.040Z,15.27
2019-06-04T04:23:55.024Z,15.40
2019-06-04T04:24:55.064Z,15.35
2019-06-04T04:25:54.992Z,15.50
2019-06-04T04:26:54.978Z,15.48
2019-06-04T04:27:55.010Z,15.62
2019-06-04T04:28:54.963Z,15.60
2019-06-04T04:29:54.967Z,15.63
2019-06-04T04:30:54.979Z,15.59
2019-06-04T04:31:54.919Z,15.69
2019-06-04T04:32:54.935Z,15.63
2019-06-04T04:33:54.898Z,15.66
2019-06-04T04:34:54.884Z,15.66
2019-06-04T04:35:54.906Z,15.69
2019-06-04T04:36:54.918Z,15.78
2019-06-04T04:37:54.869Z,15.70
2019-06-04T04:38:54.845Z,15.70
2019-06-04T04:39:54.840Z,15.80
2019-06-04T04:40:54.835Z,15.80
2019-06-04T04:41:54.834Z,15.88
2019-06-04T04:42:54.852Z,15.83
2019-06-04T04:43:54.794Z,15.91
2019-06-04T04:44:54.819Z,15.93
2019-06-04T04:45:54.771Z,15.98
2019-06-04T04:46:54.766Z,16.02
2019-06-04T04:47:54.750Z,16.05
2019-06-04T04:48:54.788Z,16.06
2019-06-04T04:49:54.717Z,16.10
2019-06-04T04:50:54.704Z,16.09
2019-06-04T04:51:54.697Z,16.17
2019-06-04T04:52:54.687Z,16.16
2019-06-04T04:53:54.671Z,16.16
2019-06-04T04:54:54.744Z,16.24
2019-06-04T04:55:54.649Z,16.25
2019-06-04T04:56:54.644Z,16.39
2019-06-04T04:57:54.658Z,16.39
2019-06-04T04:58:54.636Z,16.36
2019-06-04T04:59:54.608Z,16.36
2019-06-04T05:00:54.642Z,16.55
2019-06-04T05:01:54.591Z,16.47
2019-06-04T05:02:54.573Z,16.51
2019-06-04T05:03:54.562Z,16.49
2019-06-04T05:04:54.557Z,16.65
2019-06-04T05:05:54.556Z,16.67
2019-06-04T05:06:54.581Z,16.70
2019-06-04T05:07:54.548Z,16.74
2019-06-04T05:08:54.509Z,16.67
2019-06-04T05:09:54.548Z,16.84
2019-06-04T05:10:54.483Z,16.92
2019-06-04T05:11:54.504Z,16.95
2019-06-04T05:12:54.495Z,16.91
2019-06-04T05:13:54.463Z,17.07
2019-06-04T05:14:54.461Z,17.09
2019-06-04T05:15:54.433Z,17.12
2019-06-04T05:16:54.426Z,17.09
2019-06-04T05:17:54.405Z,17.19
2019-06-04T05:18:54.433Z,17.12
2019-06-04T05:19:54.381Z,17.24
2019-06-04T05:20:54.412Z,17.22
2019-06-04T05:21:54.360Z,17.31
2019-06-04T05:22:54.356Z,17.32
2019-06-04T05:23:54.346Z,17.31
2019-06-04T05:24:54.369Z,17.28
2019-06-04T05:25:54.322Z,17.41
2019-06-04T05:26:54.352Z,17.43
2019-06-04T05:27:54.302Z,17.41
2019-06-04T05:28:54.300Z,17.32
2019-06-04T05:29:54.281Z,17.37
2019-06-04T05:30:54.293Z,17.34
2019-06-04T05:31:54.256Z,17.46
2019-06-04T05:32:54.264Z,17.49
2019-06-04T05:33:54.232Z,17.47
2019-06-04T05:35:04.452Z,17.54
2019-06-04T05:35:55.245Z,17.57
2019-06-04T05:36:54.197Z,17.54
2019-06-04T05:37:54.187Z,17.52
2019-06-04T05:38:54.176Z,17.54
2019-06-04T05:39:54.210Z,17.53
2019-06-04T05:40:54.149Z,17.53
2019-06-04T05:41:54.193Z,17.52
2019-06-04T05:42:54.155Z,17.59
2019-06-04T05:43:56.927Z,17.59
2019-06-04T05:44:54.113Z,17.72
2019-06-04T05:45:54.190Z,17.75
2019-06-04T05:46:54.096Z,17.78
2019-06-04T05:47:54.111Z,17.78
2019-06-04T05:48:54.060Z,17.84
2019-06-04T05:49:54.054Z,17.84
2019-06-04T05:50:54.040Z,17.87
2019-06-04T05:51:54.072Z,17.99
2019-06-04T05:52:54.018Z,17.90
2019-06-04T05:53:54.058Z,17.97
2019-06-04T05:54:54.027Z,18.01
2019-06-04T05:55:54.008Z,18.08
2019-06-04T05:56:53.975Z,18.13
2019-06-04T05:57:53.966Z,18.12
2019-06-04T05:58:53.981Z,18.17
2019-06-04T05:59:53.982Z,18.21
2019-06-04T06:00:53.928Z,18.23
2019-06-04T06:01:53.918Z,18.27
2019-06-04T06:02:53.904Z,18.30
2019-06-04T06:03:53.905Z,18.26
2019-06-04T06:04:53.899Z,18.38
2019-06-04T06:05:53.904Z,18.31
2019-06-04T06:06:53.861Z,18.38
2019-06-04T06:07:53.929Z,18.42
2019-06-04T06:08:53.845Z,18.56
2019-06-04T06:09:53.844Z,18.57
2019-06-04T06:10:53.930Z,18.68
2019-06-04T06:11:54.050Z,18.57
2019-06-04T06:12:53.795Z,18.66
2019-06-04T06:13:53.784Z,18.61
2019-06-04T06:14:53.786Z,18.60
2019-06-04T06:15:53.766Z,18.56
2019-06-04T06:16:53.783Z,18.66
2019-06-04T06:17:53.776Z,18.74
2019-06-04T06:18:53.745Z,18.88
2019-06-04T06:19:53.720Z,18.97
2019-06-04T06:20:53.714Z,19.01
2019-06-04T06:21:53.696Z,19.05
2019-06-04T06:23:09.939Z,19.00
2019-06-04T06:23:54.699Z,19.01
2019-06-04T06:24:53.664Z,18.91
2019-06-04T06:25:53.650Z,19.00
2019-06-04T06:26:53.641Z,18.89
2019-06-04T06:27:53.655Z,18.98
2019-06-04T06:28:53.634Z,18.97
2019-06-04T06:29:53.642Z,19.05
2019-06-04T06:30:53.595Z,19.04
2019-06-04T06:31:53.589Z,19.09
2019-06-04T06:32:53.594Z,19.15
2019-06-04T06:33:53.565Z,19.19
2019-06-04T06:34:53.578Z,19.08
2019-06-04T06:35:53.586Z,19.19
2019-06-04T06:36:53.525Z,19.15
2019-06-04T06:37:53.539Z,19.26
2019-06-04T06:38:55.820Z,19.42
2019-06-04T06:39:53.493Z,19.47
2019-06-04T06:40:53.503Z,19.63
2019-06-04T06:41:53.516Z,19.77
2019-06-04T06:42:53.460Z,19.79
2019-06-04T06:43:53.448Z,19.78
2019-06-04T06:44:53.435Z,19.77
2019-06-04T06:45:53.425Z,19.71
2019-06-04T06:46:53.435Z,19.68
2019-06-04T06:47:53.449Z,19.64
2019-06-04T06:48:53.398Z,19.71
2019-06-04T06:49:53.457Z,19.75
2019-06-04T06:50:53.369Z,19.72
2019-06-04T06:51:53.369Z,19.64
2019-06-04T06:52:53.382Z,19.70
2019-06-04T06:53:53.386Z,19.71
2019-06-04T06:54:53.322Z,19.68
2019-06-04T06:55:53.313Z,19.77
2019-06-04T06:56:53.302Z,19.71
2019-06-04T06:57:53.291Z,19.87
2019-06-04T06:58:53.296Z,19.96
2019-06-04T06:59:53.331Z,19.87
2019-06-04T07:00:53.261Z,19.87
2019-06-04T07:01:53.248Z,19.81
2019-06-04T07:02:53.236Z,19.78
2019-06-04T07:03:53.236Z,19.79
2019-06-04T07:04:53.253Z,19.71
2019-06-04T07:05:59.979Z,19.89
2019-06-04T07:06:54.192Z,19.90
2019-06-04T07:07:53.266Z,19.89
2019-06-04T07:08:53.168Z,19.90
2019-06-04T07:09:53.160Z,19.94
2019-06-04T07:10:53.163Z,20.08
2019-06-04T07:11:53.186Z,20.09
2019-06-04T07:12:53.128Z,20.11
2019-06-04T07:13:53.114Z,20.07
2019-06-04T07:14:53.103Z,20.09
2019-06-04T07:15:53.097Z,20.14
2019-06-04T07:16:53.097Z,20.11
2019-06-04T07:17:53.149Z,20.23
2019-06-04T07:18:53.061Z,20.26
2019-06-04T07:19:53.050Z,20.37
2019-06-04T07:20:53.046Z,20.44
2019-06-04T07:21:53.026Z,20.44
2019-06-04T07:22:53.033Z,20.32
2019-06-04T07:23:53.040Z,20.34
2019-06-04T07:24:53.019Z,20.32
2019-06-04T07:25:53.425Z,20.46
2019-06-04T07:26:52.971Z,20.32
2019-06-04T07:27:53.033Z,20.42
2019-06-04T07:28:52.953Z,20.41
2019-06-04T07:29:52.974Z,20.41
2019-06-04T07:30:52.927Z,20.42
2019-06-04T07:31:52.919Z,20.36
2019-06-04T07:32:52.935Z,20.27
2019-06-04T07:33:52.893Z,20.36
2019-06-04T07:34:52.900Z,20.46
2019-06-04T07:35:52.900Z,20.34
2019-06-04T07:36:52.865Z,20.23
2019-06-04T07:37:52.876Z,20.32
2019-06-04T07:38:52.843Z,20.33
2019-06-04T07:40:05.066Z,20.41
2019-06-04T07:40:53.879Z,20.34
2019-06-04T07:41:52.819Z,20.30
2019-06-04T07:42:52.801Z,20.12
2019-06-04T07:43:52.782Z,20.27
2019-06-04T07:44:52.769Z,20.30
2019-06-04T07:45:52.759Z,20.27
2019-06-04T07:46:52.834Z,20.29
2019-06-04T07:47:52.792Z,20.22
2019-06-04T07:48:52.731Z,20.39
2019-06-04T07:49:52.716Z,20.39
2019-06-04T07:50:52.704Z,20.53
2019-06-04T07:51:52.692Z,20.75
2019-06-04T07:52:52.761Z,20.68
2019-06-04T07:53:52.675Z,20.74
2019-06-04T07:54:52.664Z,20.71
2019-06-04T07:55:52.658Z,20.71
2019-06-04T07:56:52.637Z,20.71
2019-06-04T07:57:57.779Z,20.68
2019-06-04T07:58:53.665Z,20.79
2019-06-04T07:59:52.605Z,20.79
2019-06-04T08:00:52.592Z,20.85
2019-06-04T08:02:07.043Z,20.73
2019-06-04T08:02:53.567Z,20.74
2019-06-04T08:03:52.558Z,20.92
2019-06-04T08:04:52.605Z,21.04
2019-06-04T08:05:52.542Z,21.04
2019-06-04T08:06:58.077Z,21.03
2019-06-04T08:07:53.510Z,20.95
2019-06-04T08:08:52.501Z,20.86
2019-06-04T08:09:52.492Z,20.80
2019-06-04T08:10:52.537Z,20.77
2019-06-04T08:11:52.464Z,20.85
2019-06-04T08:12:52.453Z,20.83
2019-06-04T08:13:52.544Z,20.74
2019-06-04T08:14:52.442Z,20.85
2019-06-04T08:15:52.424Z,20.73
2019-06-04T08:16:52.475Z,20.88
2019-06-04T08:17:52.514Z,20.90
2019-06-04T08:18:52.385Z,21.03
2019-06-04T08:19:52.374Z,21.18
2019-06-04T08:20:52.364Z,21.20
2019-06-04T08:21:57.921Z,21.23
2019-06-04T08:22:53.401Z,21.38
2019-06-04T08:23:52.351Z,21.41
2019-06-04T08:24:52.319Z,21.45
2019-06-04T08:25:52.320Z,21.50
2019-06-04T08:26:52.298Z,21.48
2019-06-04T08:27:52.319Z,21.56
2019-06-04T08:28:52.314Z,21.48
2019-06-04T08:29:52.262Z,21.56
2019-06-04T08:30:52.254Z,21.51
2019-06-04T08:31:52.240Z,21.58
2019-06-04T08:32:52.229Z,21.73
2019-06-04T08:33:52.223Z,21.85
2019-06-04T08:34:52.256Z,21.84
2019-06-04T08:35:52.201Z,21.78
2019-06-04T08:37:06.969Z,21.82
2019-06-04T08:37:53.282Z,21.84
2019-06-04T08:38:57.348Z,21.84
2019-06-04T08:39:53.205Z,21.85
2019-06-04T08:40:52.154Z,21.97
2019-06-04T08:41:52.129Z,22.07
2019-06-04T08:42:54.270Z,21.94
2019-06-04T08:43:52.109Z,22.06
2019-06-04T08:44:59.528Z,22.12
2019-06-04T08:45:53.116Z,22.11
2019-06-04T08:46:52.115Z,22.27
2019-06-04T08:47:52.163Z,22.38
2019-06-04T08:48:52.054Z,22.43
2019-06-04T08:49:52.042Z,22.51
2019-06-04T08:50:52.033Z,22.41
2019-06-04T08:51:52.065Z,22.48
2019-06-04T08:52:52.019Z,22.36
2019-06-04T08:53:52.008Z,22.41
2019-06-04T08:54:51.990Z,22.34
2019-06-04T08:55:52.010Z,22.43
2019-06-04T08:56:51.968Z,22.38
2019-06-04T08:57:52.044Z,22.37
2019-06-04T08:58:51.947Z,22.46
2019-06-04T08:59:51.947Z,22.38
2019-06-04T09:00:51.921Z,22.23
2019-06-04T09:01:51.911Z,22.30
2019-06-04T09:02:51.900Z,22.23
2019-06-04T09:03:51.955Z,22.16
2019-06-04T09:04:51.890Z,22.22
2019-06-04T09:05:51.881Z,22.18
2019-06-04T09:06:51.872Z,22.19
2019-06-04T09:07:51.849Z,22.28
2019-06-04T09:08:51.852Z,22.21
2019-06-04T09:09:53.642Z,22.22
2019-06-04T09:10:51.815Z,22.38
2019-06-04T09:11:51.995Z,22.48
2019-06-04T09:12:51.793Z,22.58
2019-06-04T09:13:51.786Z,22.76
2019-06-04T09:14:51.769Z,22.85
2019-06-04T09:15:55.762Z,22.98
2019-06-04T09:16:51.910Z,23.18
2019-06-04T09:17:53.766Z,23.13
2019-06-04T09:18:51.760Z,23.18
2019-06-04T09:19:51.761Z,23.28
2019-06-04T09:20:51.708Z,23.31
2019-06-04T09:21:52.156Z,23.29
2019-06-04T09:22:51.685Z,23.34
2019-06-04T09:23:51.827Z,23.42
2019-06-04T09:24:53.763Z,23.49
2019-06-04T09:25:51.652Z,23.46
2019-06-04T09:27:02.704Z,23.44
2019-06-04T09:27:52.833Z,23.39
2019-06-04T09:28:51.620Z,23.25
2019-06-04T09:29:51.637Z,23.11
2019-06-04T09:31:02.426Z,23.18
2019-06-04T09:31:52.596Z,23.14
2019-06-04T09:32:51.577Z,23.01
2019-06-04T09:33:51.634Z,22.99
2019-06-04T09:34:51.555Z,22.88
2019-06-04T09:35:51.543Z,23.04
2019-06-04T09:36:51.531Z,23.21
2019-06-04T09:38:02.497Z,23.04
2019-06-04T09:38:52.543Z,23.18
2019-06-04T09:39:53.543Z,23.25
2019-06-04T09:40:52.166Z,23.29
2019-06-04T09:41:51.479Z,23.34
2019-06-04T09:42:51.529Z,23.44
2019-06-04T09:43:51.469Z,23.51
2019-06-04T09:44:51.491Z,23.55
2019-06-04T09:45:51.454Z,23.61
2019-06-04T09:46:52.852Z,23.70
2019-06-04T09:47:51.995Z,23.86
2019-06-04T09:48:52.115Z,23.85
2019-06-04T09:49:54.182Z,23.81
2019-06-04T09:50:58.695Z,23.94
2019-06-04T09:51:52.381Z,23.86
2019-06-04T09:52:53.478Z,23.89
2019-06-04T09:53:51.345Z,23.81
2019-06-04T09:54:51.347Z,23.74
2019-06-04T09:55:51.660Z,23.81
2019-06-04T09:56:52.172Z,23.82
2019-06-04T09:58:26.128Z,23.97
2019-06-04T09:58:52.294Z,24.06
2019-06-04T09:59:51.455Z,24.04
2019-06-04T10:00:52.717Z,24.22
2019-06-04T10:01:53.590Z,24.29
2019-06-04T10:02:57.080Z,24.25
2019-06-04T10:03:52.236Z,24.36
2019-06-04T10:04:54.588Z,24.31
2019-06-04T10:05:51.973Z,24.45
2019-06-04T10:06:51.944Z,24.29
2019-06-04T10:08:10.833Z,24.41
2019-06-04T10:08:52.726Z,24.31
2019-06-04T10:09:52.478Z,24.34
2019-06-04T10:10:52.848Z,24.26
2019-06-04T10:11:52.484Z,24.29
2019-06-04T10:12:51.142Z,24.28
2019-06-04T10:13:51.140Z,24.34
2019-06-04T10:14:51.177Z,24.40
2019-06-04T10:15:51.383Z,24.40
2019-06-04T10:16:51.322Z,24.52
2019-06-04T10:17:51.354Z,24.62
2019-06-04T10:18:51.511Z,24.53
2019-06-04T10:19:51.864Z,24.63
2019-06-04T10:20:51.839Z,24.74
2019-06-04T10:21:51.999Z,24.78
2019-06-04T10:22:52.189Z,24.86
2019-06-04T10:23:51.022Z,24.96
2019-06-04T10:24:54.569Z,25.12
2019-06-04T10:25:52.444Z,25.15
2019-06-04T10:26:54.417Z,25.26
2019-06-04T10:27:52.352Z,25.27
2019-06-04T10:28:59.762Z,25.30
2019-06-04T10:29:52.282Z,25.30
2019-06-04T10:30:53.227Z,25.33
2019-06-04T10:31:50.967Z,25.43
2019-06-04T10:32:50.926Z,25.52
2019-06-04T10:33:50.923Z,25.53
2019-06-04T10:34:53.369Z,25.53
2019-06-04T10:35:53.474Z,25.71
2019-06-04T10:37:14.592Z,25.73
2019-06-04T10:37:52.893Z,25.93
2019-06-04T10:38:50.936Z,26.01
2019-06-04T10:39:51.246Z,26.26
2019-06-04T10:40:52.507Z,26.24
2019-06-04T10:41:51.392Z,26.38
2019-06-04T10:42:51.686Z,26.56
2019-06-04T10:43:51.500Z,26.70
2019-06-04T10:44:52.420Z,26.89
2019-06-04T10:45:51.575Z,27.07
2019-06-04T10:46:51.848Z,27.05
2019-06-04T10:47:52.899Z,26.98
2019-06-04T10:48:52.099Z,27.05
2019-06-04T10:49:50.823Z,27.22
2019-06-04T10:50:51.350Z,27.30
2019-06-04T10:51:51.771Z,27.32
2019-06-04T10:52:52.980Z,27.23
2019-06-04T10:53:51.600Z,27.12
2019-06-04T10:54:51.527Z,27.07
2019-06-04T10:55:52.018Z,27.22
2019-06-04T10:56:51.763Z,26.86
2019-06-04T10:57:51.585Z,26.79
2019-06-04T10:58:52.004Z,26.76
2019-06-04T10:59:52.826Z,26.65
2019-06-04T11:00:53.011Z,26.60
2019-06-04T11:01:51.965Z,26.58
2019-06-04T11:02:51.841Z,26.49
2019-06-04T11:03:51.599Z,26.45
2019-06-04T11:04:50.578Z,26.63
2019-06-04T11:05:50.744Z,26.70
2019-06-04T11:06:50.556Z,26.71
2019-06-04T11:07:50.590Z,26.79
2019-06-04T11:09:01.793Z,26.86
2019-06-04T11:09:52.225Z,26.90
2019-06-04T11:10:51.964Z,27.07
2019-06-04T11:11:50.693Z,27.15
2019-06-04T11:12:51.760Z,27.31
2019-06-04T11:13:50.789Z,27.40
2019-06-04T11:14:51.741Z,27.42
2019-06-04T11:15:51.362Z,27.35
2019-06-04T11:16:50.450Z,27.31
2019-06-04T11:17:51.465Z,27.32
2019-06-04T11:18:50.428Z,27.34
2019-06-04T11:19:51.257Z,27.42
2019-06-04T11:20:50.466Z,27.42
2019-06-04T11:21:50.530Z,27.49
2019-06-04T11:22:50.510Z,27.68
2019-06-04T11:23:50.832Z,27.58
2019-06-04T11:24:50.598Z,27.34
2019-06-04T11:25:51.552Z,27.37
2019-06-04T11:26:50.812Z,27.31
2019-06-04T11:27:50.975Z,27.19
2019-06-04T11:28:51.184Z,27.13
2019-06-04T11:29:51.172Z,27.23
2019-06-04T11:30:51.821Z,27.35
2019-06-04T11:31:51.378Z,27.53
2019-06-04T11:32:51.513Z,27.60
2019-06-04T11:33:51.823Z,27.66
2019-06-04T11:34:51.586Z,27.64
2019-06-04T11:35:51.013Z,27.69
2019-06-04T11:36:50.247Z,27.78
2019-06-04T11:37:50.501Z,27.70
2019-06-04T11:39:11.476Z,27.79
2019-06-04T11:39:52.364Z,27.75
2019-06-04T11:40:51.132Z,27.76
2019-06-04T11:41:50.418Z,27.60
2019-06-04T11:42:54.038Z,27.52
2019-06-04T11:43:51.204Z,27.54
2019-06-04T11:44:57.356Z,27.73
2019-06-04T11:45:51.159Z,27.83
2019-06-04T11:46:50.991Z,27.98
2019-06-04T11:47:51.012Z,28.00
2019-06-04T11:48:51.317Z,28.22
2019-06-04T11:49:51.895Z,28.22
2019-06-04T11:50:51.309Z,28.20
2019-06-04T11:51:51.092Z,28.34
2019-06-04T11:52:51.392Z,28.38
2019-06-04T11:53:51.383Z,28.46
2019-06-04T11:54:52.106Z,28.56
2019-06-04T11:55:52.185Z,28.66
2019-06-04T11:56:51.247Z,28.61
2019-06-04T11:57:52.246Z,28.52
2019-06-04T11:58:50.016Z,28.47
2019-06-04T11:59:50.017Z,28.44
2019-06-04T12:00:50.008Z,28.42
2019-06-04T12:01:50.040Z,28.52
2019-06-04T12:02:50.044Z,28.61
2019-06-04T12:03:49.969Z,28.74
2019-06-04T12:04:49.967Z,28.89
2019-06-04T12:05:49.991Z,29.04
2019-06-04T12:06:49.935Z,29.06
2019-06-04T12:07:49.983Z,29.04
2019-06-04T12:08:49.914Z,29.34
2019-06-04T12:09:49.925Z,29.59
2019-06-04T12:10:49.961Z,29.77
2019-06-04T12:12:14.732Z,29.62
2019-06-04T12:12:50.905Z,29.80
2019-06-04T12:13:49.860Z,29.98
2019-06-04T12:14:49.853Z,30.00
2019-06-04T12:15:49.847Z,30.02
2019-06-04T12:16:49.835Z,29.93
2019-06-04T12:17:49.851Z,29.93
2019-06-04T12:18:49.865Z,29.77
2019-06-04T12:19:49.805Z,29.65
2019-06-04T12:20:49.821Z,29.73
2019-06-04T12:21:49.791Z,29.78
2019-06-04T12:23:24.784Z,29.89
2019-06-04T12:23:50.843Z,29.87
2019-06-04T12:24:49.766Z,29.81
2019-06-04T12:25:49.743Z,29.78
2019-06-04T12:26:49.734Z,29.87
2019-06-04T12:27:49.721Z,30.08
2019-06-04T12:28:49.712Z,30.14
2019-06-04T12:29:49.755Z,29.98
2019-06-04T12:30:49.754Z,29.74
2019-06-04T12:31:49.690Z,30.03
2019-06-04T12:32:49.674Z,29.92
2019-06-04T12:33:49.691Z,29.84
2019-06-04T12:34:49.653Z,30.11
2019-06-04T12:35:49.677Z,30.30
2019-06-04T12:36:49.651Z,30.22
2019-06-04T12:37:49.629Z,30.10
2019-06-04T12:38:49.609Z,30.15
2019-06-04T12:39:51.460Z,30.03
2019-06-04T12:40:49.599Z,30.00
2019-06-04T12:41:49.620Z,30.17
2019-06-04T12:42:49.584Z,30.28
2019-06-04T12:43:50.628Z,30.55
2019-06-04T12:44:49.550Z,30.39
2019-06-04T12:45:49.547Z,30.32
2019-06-04T12:46:49.556Z,30.55
2019-06-04T12:47:49.576Z,30.65
2019-06-04T12:48:49.562Z,30.67
2019-06-04T12:49:50.669Z,30.89
2019-06-04T12:50:49.491Z,31.02
2019-06-04T12:51:49.486Z,31.07
2019-06-04T12:52:49.474Z,31.17